createdAt,value
2022-11-15T00:02:14.946Z,6.56
2022-11-15T00:05:36.404Z,6.55
2022-11-15T00:09:01.296Z,6.55
2022-11-15T00:12:21.606Z,6.54
2022-11-15T00:15:42.072Z,6.55
2022-11-15T00:19:02.835Z,6.53
2022-11-15T00:22:23.062Z,6.53
2022-11-15T00:25:43.156Z,6.50
2022-11-15T00:29:03.455Z,6.47
2022-11-15T00:32:23.822Z,6.45
2022-11-15T00:35:43.877Z,6.43
2022-11-15T00:39:06.080Z,6.39
2022-11-15T00:42:26.540Z,6.35
2022-11-15T00:45:46.643Z,6.30
2022-11-15T00:49:06.608Z,6.28
2022-11-15T00:52:27.156Z,6.27
2022-11-15T00:55:47.385Z,6.24
2022-11-15T00:59:07.963Z,6.24
2022-11-15T01:02:28.561Z,6.21
2022-11-15T01:05:48.873Z,6.19
2022-11-15T01:09:09.168Z,6.15
2022-11-15T01:12:29.653Z,6.13
2022-11-15T01:15:50.219Z,6.13
2022-11-15T01:19:10.420Z,6.11
2022-11-15T01:22:31.081Z,6.08
2022-11-15T01:25:51.855Z,6.05
2022-11-15T01:29:11.872Z,6.03
2022-11-15T01:32:32.340Z,6.03
2022-11-15T01:35:52.586Z,6.03
2022-11-15T01:39:12.649Z,6.03
2022-11-15T01:42:33.079Z,6.03
2022-11-15T01:46:02.934Z,6.04
2022-11-15T01:49:25.052Z,6.05
2022-11-15T01:52:45.560Z,6.05
2022-11-15T01:56:10.059Z,6.05
2022-11-15T01:59:30.739Z,6.06
2022-11-15T02:02:51.247Z,6.05
2022-11-15T02:06:11.853Z,6.05
2022-11-15T02:09:31.932Z,6.03
2022-11-15T02:12:53.821Z,6.04
2022-11-15T02:16:28.185Z,6.02
2022-11-15T02:20:17.452Z,6.01
2022-11-15T02:23:49.814Z,6.00
2022-11-15T02:28:03.052Z,5.98
2022-11-15T02:31:26.151Z,5.96
2022-11-15T02:35:03.370Z,5.93
2022-11-15T02:38:45.168Z,5.92
2022-11-15T02:42:33.879Z,5.90
2022-11-15T02:46:02.776Z,5.88
2022-11-15T02:49:26.546Z,5.85
2022-11-15T02:52:49.675Z,5.83
2022-11-15T02:56:11.556Z,5.82
2022-11-15T02:59:34.279Z,5.80
2022-11-15T03:03:12.364Z,5.79
2022-11-15T03:06:39.420Z,5.78
2022-11-15T03:10:27.584Z,5.77
2022-11-15T03:13:47.696Z,5.77
2022-11-15T03:17:30.898Z,5.76
2022-11-15T03:20:51.478Z,5.77
2022-11-15T03:24:14.659Z,5.76
2022-11-15T03:27:45.375Z,5.75
2022-11-15T03:31:26.392Z,5.74
2022-11-15T03:34:52.450Z,5.73
2022-11-15T03:38:30.899Z,5.74
2022-11-15T03:42:33.069Z,5.74
2022-11-15T03:45:59.923Z,5.73
2022-11-15T03:49:34.554Z,5.73
2022-11-15T03:52:56.463Z,5.72
2022-11-15T03:56:16.935Z,5.71
2022-11-15T03:59:36.991Z,5.72
2022-11-15T04:02:57.476Z,5.72
2022-11-15T04:06:17.570Z,5.73
2022-11-15T04:09:58.202Z,5.74
2022-11-15T04:13:18.698Z,5.73
2022-11-15T04:16:43.752Z,5.73
2022-11-15T04:20:24.526Z,5.70
2022-11-15T04:24:03.626Z,5.69
2022-11-15T04:27:24.201Z,5.69
2022-11-15T04:30:44.939Z,5.68
2022-11-15T04:34:05.322Z,5.66
2022-11-15T04:37:25.569Z,5.65
2022-11-15T04:40:47.048Z,5.64
2022-11-15T04:44:07.545Z,5.62
2022-11-15T04:47:28.518Z,5.61
2022-11-15T04:50:49.440Z,5.60
2022-11-15T04:54:09.848Z,5.59
2022-11-15T04:57:30.272Z,5.58
2022-11-15T05:00:50.737Z,5.56
2022-11-15T05:04:20.564Z,5.54
2022-11-15T05:07:40.706Z,5.52
2022-11-15T05:11:01.319Z,5.52
2022-11-15T05:14:21.771Z,5.53
2022-11-15T05:17:42.338Z,5.54
2022-11-15T05:21:06.682Z,5.55
2022-11-15T05:24:26.982Z,5.55
2022-11-15T05:27:47.191Z,5.56
2022-11-15T05:31:09.935Z,5.56
2022-11-15T05:34:30.014Z,5.57
2022-11-15T05:37:50.362Z,5.57
2022-11-15T05:41:12.136Z,5.57
2022-11-15T05:44:33.518Z,5.56
2022-11-15T05:47:55.588Z,5.55
2022-11-15T05:51:17.650Z,5.52
2022-11-15T05:54:38.623Z,5.50
2022-11-15T05:57:59.014Z,5.47
2022-11-15T06:01:19.519Z,5.46
2022-11-15T06:04:39.934Z,5.44
2022-11-15T06:08:00.858Z,5.42
2022-11-15T06:11:21.339Z,5.40
2022-11-15T06:14:41.762Z,5.39
2022-11-15T06:18:01.881Z,5.38
2022-11-15T06:21:22.768Z,5.35
2022-11-15T06:24:44.313Z,5.34
2022-11-15T06:28:04.506Z,5.32
2022-11-15T06:31:24.807Z,5.31
2022-11-15T06:34:45.096Z,5.29
2022-11-15T06:38:08.637Z,5.29
2022-11-15T06:41:29.243Z,5.28
2022-11-15T06:44:49.503Z,5.29
2022-11-15T06:48:09.703Z,5.31
2022-11-15T06:51:29.625Z,5.32
2022-11-15T06:54:50.106Z,5.34
2022-11-15T06:58:10.365Z,5.36
2022-11-15T07:01:31.391Z,5.38
2022-11-15T07:04:51.750Z,5.39
2022-11-15T07:08:11.931Z,5.40
2022-11-15T07:11:33.772Z,5.42
2022-11-15T07:14:53.907Z,5.45
2022-11-15T07:18:14.018Z,5.48
2022-11-15T07:21:34.135Z,5.52
2022-11-15T07:24:54.377Z,5.55
2022-11-15T07:28:14.736Z,5.58
2022-11-15T07:31:35.261Z,5.62
2022-11-15T07:34:55.224Z,5.66
2022-11-15T07:38:19.853Z,5.69
2022-11-15T07:41:40.199Z,5.74
2022-11-15T07:45:00.321Z,5.77
2022-11-15T07:48:20.553Z,5.79
2022-11-15T07:51:40.843Z,5.85
2022-11-15T07:55:01.446Z,5.91
2022-11-15T07:58:22.127Z,5.98
2022-11-15T08:01:42.759Z,6.06
2022-11-15T08:05:03.510Z,6.15
2022-11-15T08:08:23.827Z,6.24
2022-11-15T08:11:44.433Z,6.35
2022-11-15T08:15:05.503Z,6.46
2022-11-15T08:18:25.881Z,6.56
2022-11-15T08:21:46.570Z,6.66
2022-11-15T08:25:07.855Z,6.76
2022-11-15T08:28:29.357Z,6.87
2022-11-15T08:31:49.596Z,6.97
2022-11-15T08:35:13.159Z,7.08
2022-11-15T08:38:33.932Z,7.19
2022-11-15T08:41:54.337Z,7.32
2022-11-15T08:45:15.612Z,7.46
2022-11-15T08:48:35.888Z,7.59
2022-11-15T08:51:56.623Z,7.74
2022-11-15T08:55:17.715Z,7.87
2022-11-15T08:58:38.273Z,8.00
2022-11-15T09:01:58.339Z,8.15
2022-11-15T09:05:19.181Z,8.31
2022-11-15T09:08:48.101Z,8.47
2022-11-15T09:12:09.327Z,8.64
2022-11-15T09:15:30.921Z,8.79
2022-11-15T09:18:51.615Z,8.94
2022-11-15T09:22:11.973Z,9.09
2022-11-15T09:25:33.349Z,9.22
2022-11-15T09:28:53.732Z,9.35
2022-11-15T09:32:14.156Z,9.47
2022-11-15T09:35:34.105Z,9.58
2022-11-15T09:38:55.087Z,9.67
2022-11-15T09:42:32.790Z,9.76
2022-11-15T09:46:11.019Z,9.83
2022-11-15T09:49:42.292Z,9.90
2022-11-15T09:52:51.464Z,9.95
2022-11-15T09:56:11.856Z,9.98
2022-11-15T09:59:32.132Z,10.05
2022-11-15T10:03:03.332Z,10.10
2022-11-15T10:06:06.862Z,10.13
2022-11-15T10:09:21.182Z,10.17
2022-11-15T10:12:25.960Z,10.20
2022-11-15T10:15:27.926Z,10.23
2022-11-15T10:18:44.734Z,10.27
2022-11-15T10:22:05.339Z,10.31
2022-11-15T10:25:10.029Z,10.35
2022-11-15T10:28:23.946Z,10.40
2022-11-15T10:31:28.680Z,10.44
2022-11-15T10:34:36.234Z,10.51
2022-11-15T10:37:38.075Z,10.59
2022-11-15T10:40:41.080Z,10.69
2022-11-15T10:43:43.588Z,10.79
2022-11-15T10:46:57.077Z,10.90
2022-11-15T10:50:31.967Z,11.02
2022-11-15T10:53:44.229Z,11.15
2022-11-15T10:56:51.359Z,11.28
2022-11-15T11:00:00.494Z,11.44
2022-11-15T11:03:09.010Z,11.58
2022-11-15T11:06:15.425Z,11.72
2022-11-15T11:09:35.879Z,11.84
2022-11-15T11:12:37.800Z,11.96
2022-11-15T11:15:41.523Z,12.05
2022-11-15T11:18:55.208Z,12.16
2022-11-15T11:22:11.874Z,12.26
2022-11-15T11:25:32.226Z,12.35
2022-11-15T11:28:42.461Z,12.44
2022-11-15T11:32:07.090Z,12.51
2022-11-15T11:35:20.194Z,12.57
2022-11-15T11:38:27.993Z,12.57
2022-11-15T11:41:41.679Z,12.52
2022-11-15T11:45:16.469Z,12.43
2022-11-15T11:48:43.844Z,12.33
2022-11-15T11:52:00.719Z,12.22
2022-11-15T11:55:14.857Z,12.13
2022-11-15T11:58:39.330Z,12.04
2022-11-15T12:01:45.539Z,11.96
2022-11-15T12:04:53.445Z,11.88
2022-11-15T12:08:04.097Z,11.81
2022-11-15T12:11:14.964Z,11.73
2022-11-15T12:14:26.990Z,11.66
2022-11-15T12:17:32.449Z,11.58
2022-11-15T12:20:39.952Z,11.52
2022-11-15T12:23:50.566Z,11.45
2022-11-15T12:27:03.313Z,11.39
2022-11-15T12:30:14.521Z,11.34
2022-11-15T12:33:37.335Z,11.27
2022-11-15T12:36:43.294Z,11.22
2022-11-15T12:40:04.461Z,11.17
2022-11-15T12:43:39.198Z,11.13
2022-11-15T12:46:41.026Z,11.07
2022-11-15T12:49:44.929Z,11.04
2022-11-15T12:53:27.879Z,11.02
2022-11-15T12:56:29.705Z,10.98
2022-11-15T13:00:04.409Z,10.96
2022-11-15T13:03:23.833Z,10.93
2022-11-15T13:06:46.244Z,10.90
2022-11-15T13:09:50.844Z,10.87
2022-11-15T13:12:56.164Z,10.84
2022-11-15T13:16:02.107Z,10.82
2022-11-15T13:19:05.105Z,10.81
2022-11-15T13:22:28.759Z,10.79
2022-11-15T13:25:45.703Z,10.78
2022-11-15T13:28:52.208Z,10.76
2022-11-15T13:31:55.952Z,10.75
2022-11-15T13:35:00.782Z,10.74
2022-11-15T13:38:05.161Z,10.72
2022-11-15T13:41:22.629Z,10.71
2022-11-15T13:44:28.206Z,10.70
2022-11-15T13:47:31.954Z,10.67
2022-11-15T13:50:37.470Z,10.65
2022-11-15T13:53:41.794Z,10.63
2022-11-15T13:56:58.381Z,10.61
2022-11-15T14:00:41.060Z,10.59
2022-11-15T14:03:50.445Z,10.56
2022-11-15T14:06:55.765Z,10.54
2022-11-15T14:09:57.695Z,10.52
2022-11-15T14:13:00.488Z,10.50
2022-11-15T14:16:19.703Z,10.49
2022-11-15T14:19:21.390Z,10.46
2022-11-15T14:22:28.607Z,10.45
2022-11-15T14:25:35.818Z,10.43
2022-11-15T14:28:39.598Z,10.41
2022-11-15T14:31:43.862Z,10.40
2022-11-15T14:34:46.471Z,10.37
2022-11-15T14:37:48.483Z,10.33
2022-11-15T14:40:50.803Z,10.30
2022-11-15T14:43:53.826Z,10.27
2022-11-15T14:46:55.505Z,10.23
2022-11-15T14:49:57.206Z,10.20
2022-11-15T14:52:59.013Z,10.19
2022-11-15T14:56:00.810Z,10.17
2022-11-15T14:59:02.573Z,10.16
2022-11-15T15:02:20.338Z,10.16
2022-11-15T15:05:31.020Z,10.11
2022-11-15T15:08:32.966Z,10.07
2022-11-15T15:11:34.763Z,10.02
2022-11-15T15:14:36.490Z,9.95
2022-11-15T15:17:38.176Z,9.89
2022-11-15T15:20:41.860Z,9.84
2022-11-15T15:23:43.575Z,9.81
2022-11-15T15:26:45.343Z,9.79
2022-11-15T15:29:47.080Z,9.75
2022-11-15T15:32:49.270Z,9.69
2022-11-15T15:35:50.931Z,9.63
2022-11-15T15:38:52.870Z,9.57
2022-11-15T15:41:57.412Z,9.51
2022-11-15T15:44:59.307Z,9.47
2022-11-15T15:48:01.025Z,9.43
2022-11-15T15:51:05.778Z,9.40
2022-11-15T15:54:12.979Z,9.38
2022-11-15T15:57:14.949Z,9.34
2022-11-15T16:00:17.596Z,9.31
2022-11-15T16:03:19.327Z,9.26
2022-11-15T16:06:44.599Z,9.21
2022-11-15T16:10:01.688Z,9.17
2022-11-15T16:13:03.668Z,9.17
2022-11-15T16:16:09.624Z,9.15
2022-11-15T16:19:12.457Z,9.11
2022-11-15T16:22:14.414Z,9.09
2022-11-15T16:25:16.126Z,9.09
2022-11-15T16:28:25.139Z,9.10
2022-11-15T16:31:26.845Z,9.10
2022-11-15T16:34:31.597Z,9.10
2022-11-15T16:37:34.660Z,9.08
2022-11-15T16:40:36.406Z,9.09
2022-11-15T16:43:38.048Z,9.10
2022-11-15T16:46:42.767Z,9.12
2022-11-15T16:49:48.169Z,9.12
2022-11-15T16:52:55.584Z,9.14
2022-11-15T16:55:57.780Z,9.16
2022-11-15T16:59:00.038Z,9.18
2022-11-15T17:02:02.042Z,9.18
2022-11-15T17:05:09.841Z,9.21
2022-11-15T17:08:13.074Z,9.24
2022-11-15T17:11:18.813Z,9.27
2022-11-15T17:14:20.797Z,9.28
2022-11-15T17:17:22.933Z,9.29
2022-11-15T17:20:25.487Z,9.31
2022-11-15T17:23:27.312Z,9.34
2022-11-15T17:26:34.031Z,9.37
2022-11-15T17:29:38.161Z,9.40
2022-11-15T17:32:43.592Z,9.43
2022-11-15T17:35:45.845Z,9.46
2022-11-15T17:38:55.248Z,9.49
2022-11-15T17:42:00.742Z,9.50
2022-11-15T17:45:06.723Z,9.52
2022-11-15T17:48:11.330Z,9.52
2022-11-15T17:51:16.398Z,9.52
2022-11-15T17:54:18.782Z,9.53
2022-11-15T17:57:20.416Z,9.52
2022-11-15T18:00:22.182Z,9.52
2022-11-15T18:03:23.846Z,9.50
2022-11-15T18:06:26.936Z,9.48
2022-11-15T18:09:28.962Z,9.47
2022-11-15T18:12:30.632Z,9.46
2022-11-15T18:15:32.345Z,9.45
2022-11-15T18:18:35.292Z,9.45
2022-11-15T18:21:55.371Z,9.44
2022-11-15T18:24:57.040Z,9.43
2022-11-15T18:27:59.068Z,9.42
2022-11-15T18:31:02.498Z,9.42
2022-11-15T18:34:04.329Z,9.40
2022-11-15T18:37:06.444Z,9.40
2022-11-15T18:40:09.061Z,9.39
2022-11-15T18:43:10.721Z,9.40
2022-11-15T18:46:15.926Z,9.39
2022-11-15T18:49:19.639Z,9.38
2022-11-15T18:52:21.941Z,9.39
2022-11-15T18:55:23.517Z,9.39
2022-11-15T18:58:25.182Z,9.37
2022-11-15T19:01:30.472Z,9.37
2022-11-15T19:04:32.317Z,9.36
2022-11-15T19:07:34.292Z,9.37
2022-11-15T19:10:36.217Z,9.35
2022-11-15T19:13:38.694Z,9.34
2022-11-15T19:16:51.456Z,9.33
2022-11-15T19:19:53.157Z,9.34
2022-11-15T19:22:55.119Z,9.32
2022-11-15T19:25:59.429Z,9.33
2022-11-15T19:29:01.581Z,9.33
2022-11-15T19:32:04.577Z,9.34
2022-11-15T19:35:06.518Z,9.33
2022-11-15T19:38:08.353Z,9.34
2022-11-15T19:41:13.515Z,9.35
2022-11-15T19:44:15.359Z,9.35
2022-11-15T19:47:16.944Z,9.36
2022-11-15T19:50:18.737Z,9.36
2022-11-15T19:53:22.830Z,9.38
2022-11-15T19:56:24.892Z,9.38
2022-11-15T19:59:26.617Z,9.39
2022-11-15T20:02:28.301Z,9.41
2022-11-15T20:05:29.982Z,9.43
2022-11-15T20:08:32.695Z,9.43
2022-11-15T20:11:37.308Z,9.45
2022-11-15T20:14:39.082Z,9.46
2022-11-15T20:17:40.724Z,9.49
2022-11-15T20:20:42.655Z,9.50
2022-11-15T20:23:44.308Z,9.52
2022-11-15T20:26:46.400Z,9.53
2022-11-15T20:29:48.257Z,9.55
2022-11-15T20:32:49.949Z,9.57
2022-11-15T20:35:52.416Z,9.59
2022-11-15T20:38:58.588Z,9.60
2022-11-15T20:42:00.313Z,9.62
2022-11-15T20:45:01.908Z,9.63
2022-11-15T20:48:03.874Z,9.66
2022-11-15T20:51:13.701Z,9.66
2022-11-15T20:54:18.652Z,9.68
2022-11-15T20:57:20.333Z,9.68
2022-11-15T21:00:24.388Z,9.70
2022-11-15T21:03:26.009Z,9.70
2022-11-15T21:06:27.732Z,9.70
2022-11-15T21:09:47.706Z,9.70
2022-11-15T21:12:50.399Z,9.72
2022-11-15T21:15:55.463Z,9.73
2022-11-15T21:18:57.259Z,9.73
2022-11-15T21:21:58.947Z,9.73
2022-11-15T21:25:00.825Z,9.74
2022-11-15T21:28:02.658Z,9.74
2022-11-15T21:31:04.425Z,9.74
2022-11-15T21:34:06.674Z,9.75
2022-11-15T21:37:09.944Z,9.75
2022-11-15T21:40:12.013Z,9.76
2022-11-15T21:43:14.299Z,9.76
2022-11-15T21:46:15.913Z,9.77
2022-11-15T21:49:17.649Z,9.77
2022-11-15T21:52:19.251Z,9.77
2022-11-15T21:55:20.875Z,9.76
2022-11-15T21:58:23.198Z,9.78
2022-11-15T22:01:45.512Z,9.78
2022-11-15T22:04:47.228Z,9.79
2022-11-15T22:07:51.839Z,9.79
2022-11-15T22:10:53.770Z,9.80
2022-11-15T22:13:57.696Z,9.82
2022-11-15T22:17:00.713Z,9.83
2022-11-15T22:20:17.004Z,9.83
2022-11-15T22:23:26.043Z,9.86
2022-11-15T22:26:29.009Z,9.87
2022-11-15T22:29:30.809Z,9.87
2022-11-15T22:32:34.829Z,9.89
2022-11-15T22:35:40.880Z,9.90
2022-11-15T22:38:42.782Z,9.91
2022-11-15T22:41:44.694Z,9.91
2022-11-15T22:44:46.588Z,9.92
2022-11-15T22:47:48.267Z,9.92
2022-11-15T22:50:50.319Z,9.91
2022-11-15T22:53:52.062Z,9.92
2022-11-15T22:56:53.756Z,9.92
2022-11-15T22:59:55.768Z,9.91
2022-11-15T23:02:57.592Z,9.89
2022-11-15T23:06:06.802Z,9.91
2022-11-15T23:09:09.361Z,9.92
2022-11-15T23:12:30.046Z,9.93
2022-11-15T23:15:51.659Z,9.93
2022-11-15T23:18:56.977Z,9.94
2022-11-15T23:22:17.207Z,9.94
2022-11-15T23:25:18.951Z,9.94
2022-11-15T23:28:20.782Z,9.95
2022-11-15T23:31:41.296Z,9.94
2022-11-15T23:34:45.012Z,9.94
2022-11-15T23:37:46.688Z,9.93
2022-11-15T23:40:52.940Z,9.92
2022-11-15T23:43:54.636Z,9.92
2022-11-15T23:46:56.336Z,9.93
2022-11-15T23:49:58.026Z,9.91
2022-11-15T23:52:59.679Z,9.89
2022-11-15T23:56:12.652Z,9.88
2022-11-15T23:59:14.360Z,9.87
